createdAt,value
2024-04-17T00:00:35.196Z,3.85
2024-04-17T00:03:23.848Z,2.33
2024-04-17T00:05:53.136Z,2.20
2024-04-17T00:08:21.655Z,4.25
2024-04-17T00:10:50.692Z,2.15
2024-04-17T00:13:19.248Z,2.40
2024-04-17T00:15:48.762Z,2.25
2024-04-17T00:18:17.927Z,2.92
2024-04-17T00:20:46.818Z,7.93
2024-04-17T00:23:15.286Z,8.25
2024-04-17T00:25:44.341Z,4.50
2024-04-17T00:28:13.362Z,3.35
2024-04-17T00:30:42.472Z,3.25
2024-04-17T00:33:11.236Z,3.72
2024-04-17T00:35:40.385Z,3.58
2024-04-17T00:38:08.874Z,2.50
2024-04-17T00:40:37.810Z,3.92
2024-04-17T00:43:06.411Z,4.95
2024-04-17T00:45:41.071Z,3.50
2024-04-17T00:48:12.925Z,3.40
2024-04-17T00:50:50.330Z,3.40
2024-04-17T00:53:44.158Z,4.53
2024-04-17T00:56:13.164Z,4.07
2024-04-17T00:58:42.027Z,4.70
2024-04-17T01:01:11.124Z,4.70
2024-04-17T01:03:39.736Z,3.67
2024-04-17T01:06:09.159Z,5.30
2024-04-17T01:08:37.746Z,3.38
2024-04-17T01:11:07.381Z,3.65
2024-04-17T01:13:35.920Z,4.53
2024-04-17T01:16:05.299Z,5.30
2024-04-17T01:18:34.257Z,4.45
2024-04-17T01:21:04.606Z,4.95
2024-04-17T01:23:33.388Z,4.85
2024-04-17T01:26:02.794Z,4.97
2024-04-17T01:28:31.414Z,4.57
2024-04-17T01:31:01.651Z,3.88
2024-04-17T01:33:30.228Z,3.83
2024-04-17T01:35:59.147Z,5.95
2024-04-17T01:38:28.065Z,3.90
2024-04-17T01:40:57.493Z,5.05
2024-04-17T01:43:27.041Z,5.43
2024-04-17T01:45:56.152Z,3.90
2024-04-17T01:48:24.714Z,4.93
2024-04-17T01:50:53.722Z,4.53
2024-04-17T01:53:22.172Z,4.25
2024-04-17T01:55:51.170Z,6.72
2024-04-17T01:58:19.811Z,4.85
2024-04-17T02:00:48.979Z,4.47
2024-04-17T02:03:17.580Z,5.22
2024-04-17T02:05:46.850Z,5.32
2024-04-17T02:08:15.474Z,5.45
2024-04-17T02:10:44.495Z,5.10
2024-04-17T02:13:12.962Z,5.13
2024-04-17T02:15:41.984Z,6.18
2024-04-17T02:18:10.727Z,5.90
2024-04-17T02:20:39.922Z,5.30
2024-04-17T02:23:08.458Z,5.30
2024-04-17T02:25:37.364Z,6.25
2024-04-17T02:28:06.311Z,3.20
2024-04-17T02:30:35.553Z,3.65
2024-04-17T02:33:04.851Z,3.63
2024-04-17T02:38:05.574Z,3.45
2024-04-17T02:40:34.539Z,4.70
2024-04-17T02:43:03.099Z,2.92
2024-04-17T02:45:32.006Z,6.10
2024-04-17T02:48:01.858Z,4.38
2024-04-17T02:50:31.016Z,3.85
2024-04-17T02:52:59.625Z,5.38
2024-04-17T02:55:28.647Z,4.38
2024-04-17T02:57:57.428Z,6.00
2024-04-17T03:00:27.413Z,5.95
2024-04-17T03:02:57.313Z,7.90
2024-04-17T03:05:29.313Z,5.97
2024-04-17T03:07:58.360Z,6.75
2024-04-17T03:10:27.374Z,5.47
2024-04-17T03:12:56.885Z,8.68
2024-04-17T03:15:25.817Z,7.00
2024-04-17T03:17:54.522Z,5.47
2024-04-17T03:20:23.486Z,3.95
2024-04-17T03:22:52.277Z,9.60
2024-04-17T03:25:21.612Z,7.53
2024-04-17T03:27:50.145Z,8.18
2024-04-17T03:30:19.218Z,8.80
2024-04-17T03:32:47.795Z,7.50
2024-04-17T03:35:16.851Z,6.63
2024-04-17T03:37:45.471Z,5.55
2024-04-17T03:40:14.481Z,5.68
2024-04-17T03:42:42.889Z,7.32
2024-04-17T03:45:11.949Z,5.18
2024-04-17T03:47:41.658Z,5.30
2024-04-17T03:50:10.751Z,4.57
2024-04-17T03:52:39.272Z,5.78
2024-04-17T03:55:08.420Z,6.95
2024-04-17T03:57:36.967Z,5.20
2024-04-17T04:00:06.475Z,5.22
2024-04-17T04:02:35.526Z,4.72
2024-04-17T04:05:04.672Z,7.90
2024-04-17T04:07:33.271Z,5.78
2024-04-17T04:10:02.368Z,9.68
2024-04-17T04:12:30.912Z,6.57
2024-04-17T04:14:59.952Z,7.55
2024-04-17T04:17:28.569Z,6.22
2024-04-17T04:19:57.554Z,5.57
2024-04-17T04:22:27.318Z,6.00
2024-04-17T04:24:56.363Z,7.93
2024-04-17T04:27:24.795Z,8.75
2024-04-17T04:29:53.770Z,7.00
2024-04-17T04:32:22.234Z,6.75
2024-04-17T04:34:51.474Z,4.53
2024-04-17T04:37:20.091Z,4.30
2024-04-17T04:39:49.266Z,5.10
2024-04-17T04:42:17.944Z,7.43
2024-04-17T04:44:47.021Z,6.38
2024-04-17T04:47:16.323Z,5.97
2024-04-17T04:49:46.673Z,6.85
2024-04-17T04:52:15.384Z,6.10
2024-04-17T04:54:45.179Z,6.45
2024-04-17T04:57:13.636Z,5.97
2024-04-17T04:59:42.611Z,5.25
2024-04-17T05:02:11.178Z,4.03
2024-04-17T05:04:40.255Z,5.47
2024-04-17T05:07:11.279Z,4.65
2024-04-17T05:09:40.226Z,6.60
2024-04-17T05:12:12.958Z,5.38
2024-04-17T05:14:42.019Z,5.90
2024-04-17T05:17:10.618Z,4.00
2024-04-17T05:19:39.698Z,6.38
2024-04-17T05:22:11.219Z,3.00
2024-04-17T05:27:08.957Z,7.80
2024-04-17T05:29:37.931Z,5.80
2024-04-17T05:32:08.027Z,4.47
2024-04-17T05:34:47.072Z,5.57
2024-04-17T05:37:17.420Z,5.55
2024-04-17T05:39:47.686Z,4.78
2024-04-17T05:42:16.165Z,3.70
2024-04-17T05:44:50.237Z,2.75
2024-04-17T05:47:19.420Z,6.80
2024-04-17T05:49:49.762Z,3.28
2024-04-17T05:52:21.793Z,4.37
2024-04-17T05:54:50.906Z,4.40
2024-04-17T05:57:19.338Z,5.07
2024-04-17T05:59:48.437Z,5.97
2024-04-17T06:02:16.943Z,3.97
2024-04-17T06:04:46.546Z,3.05
2024-04-17T06:07:15.156Z,3.38
2024-04-17T06:09:45.063Z,5.30
2024-04-17T06:12:13.668Z,4.50
2024-04-17T06:14:42.635Z,2.75
2024-04-17T06:17:11.932Z,3.42
2024-04-17T06:19:42.665Z,5.63
2024-04-17T06:22:11.589Z,2.70
2024-04-17T06:24:40.575Z,4.13
2024-04-17T06:27:09.067Z,5.50
2024-04-17T06:29:38.047Z,4.03
2024-04-17T06:32:06.837Z,3.92
2024-04-17T06:34:37.396Z,3.47
2024-04-17T06:37:09.286Z,3.28
2024-04-17T06:42:06.781Z,3.50
2024-04-17T06:44:40.022Z,3.42
2024-04-17T06:47:08.791Z,2.08
2024-04-17T06:49:38.072Z,3.88
2024-04-17T06:52:09.668Z,4.25
2024-04-17T06:57:07.111Z,2.90
2024-04-17T06:59:40.440Z,3.45
2024-04-17T07:02:09.092Z,3.53
2024-04-17T07:04:38.230Z,3.55
2024-04-17T07:07:08.480Z,3.50
2024-04-17T07:09:37.438Z,4.20
2024-04-17T07:12:07.227Z,2.83
2024-04-17T07:14:39.280Z,4.28
2024-04-17T07:17:07.854Z,2.83
2024-04-17T07:19:37.015Z,3.25
2024-04-17T07:22:08.395Z,4.80
2024-04-17T07:24:37.572Z,2.13
2024-04-17T07:27:06.161Z,2.90
2024-04-17T07:29:39.784Z,3.45
2024-04-17T07:32:08.402Z,3.42
2024-04-17T07:34:37.476Z,4.40
2024-04-17T07:37:08.102Z,4.78
2024-04-17T07:39:37.917Z,2.92
2024-04-17T07:42:06.698Z,4.85
2024-04-17T07:44:36.148Z,4.15
2024-04-17T07:47:04.673Z,4.40
2024-04-17T07:49:33.854Z,3.22
2024-04-17T07:52:02.432Z,1.52
2024-04-17T07:54:31.680Z,2.40
2024-04-17T07:57:00.256Z,4.22
2024-04-17T07:59:32.313Z,2.25
2024-04-17T08:02:01.313Z,3.95
2024-04-17T08:04:32.891Z,3.72
2024-04-17T08:07:01.441Z,3.20
2024-04-17T08:09:30.450Z,3.05
2024-04-17T08:11:59.162Z,4.43
2024-04-17T08:14:28.096Z,7.28
2024-04-17T08:16:57.656Z,5.03
2024-04-17T08:19:26.618Z,3.08
2024-04-17T08:21:55.145Z,3.80
2024-04-17T08:24:24.093Z,2.22
2024-04-17T08:26:52.682Z,1.75
2024-04-17T08:29:21.596Z,2.50
2024-04-17T08:31:50.599Z,1.92
2024-04-17T08:34:19.586Z,3.40
2024-04-17T08:36:48.107Z,3.03
2024-04-17T08:39:17.073Z,1.55
2024-04-17T08:41:50.278Z,2.47
2024-04-17T08:44:29.774Z,2.55
2024-04-17T08:47:00.053Z,2.60
2024-04-17T08:49:30.439Z,2.42
2024-04-17T08:52:00.274Z,4.22
2024-04-17T08:54:30.332Z,2.42
2024-04-17T08:56:59.336Z,2.90
2024-04-17T08:59:28.630Z,3.70
2024-04-17T09:02:00.473Z,2.75
2024-04-17T09:04:31.084Z,2.95
2024-04-17T09:06:59.884Z,1.67
2024-04-17T09:09:29.447Z,1.50
2024-04-17T09:11:58.346Z,1.63
2024-04-17T09:14:31.188Z,1.63
2024-04-17T09:17:01.676Z,1.15
2024-04-17T09:19:31.176Z,1.85
2024-04-17T09:21:59.744Z,1.98
2024-04-17T09:24:28.660Z,4.10
2024-04-17T09:26:59.868Z,2.40
2024-04-17T09:29:29.158Z,2.05
2024-04-17T09:31:57.754Z,2.75
2024-04-17T09:34:27.544Z,1.67
2024-04-17T09:36:55.983Z,1.85
2024-04-17T09:39:24.877Z,2.30
2024-04-17T09:41:54.653Z,2.45
2024-04-17T09:44:29.142Z,1.15
2024-04-17T09:46:59.494Z,2.03
2024-04-17T09:49:30.323Z,2.40
2024-04-17T09:52:04.026Z,2.00
2024-04-17T09:54:33.141Z,1.55
2024-04-17T09:57:04.829Z,1.65
2024-04-17T09:59:36.114Z,3.22
2024-04-17T10:02:06.189Z,1.52
2024-04-17T10:04:36.155Z,1.60
2024-04-17T10:07:06.202Z,2.22
2024-04-17T10:09:36.165Z,2.03
2024-04-17T10:12:05.966Z,1.00
2024-04-17T10:14:36.087Z,1.52
2024-04-17T10:17:20.568Z,2.03
2024-04-17T10:19:55.505Z,1.20
2024-04-17T10:22:24.318Z,2.15
2024-04-17T10:24:53.507Z,1.60
2024-04-17T10:27:23.030Z,3.58
2024-04-17T10:29:52.401Z,1.95
2024-04-17T10:32:20.947Z,1.73
2024-04-17T10:34:54.848Z,1.35
2024-04-17T10:37:27.686Z,2.92
2024-04-17T10:39:56.720Z,1.60
2024-04-17T10:42:25.374Z,2.25
2024-04-17T10:44:59.659Z,2.20
2024-04-17T10:47:29.593Z,0.90
2024-04-17T10:50:05.954Z,3.20
2024-04-17T10:52:34.583Z,2.05
2024-04-17T10:55:06.247Z,1.98
2024-04-17T10:57:37.930Z,1.60
2024-04-17T11:00:07.609Z,1.40
2024-04-17T11:02:36.417Z,1.88
2024-04-17T11:05:08.217Z,3.55
2024-04-17T11:07:38.286Z,1.73
2024-04-17T11:10:12.741Z,1.85
2024-04-17T11:12:41.943Z,2.88
2024-04-17T11:15:11.579Z,3.92
2024-04-17T11:17:41.997Z,3.05
2024-04-17T11:20:11.863Z,1.45
2024-04-17T11:22:41.313Z,2.05
2024-04-17T11:25:15.479Z,2.92
2024-04-17T11:27:47.561Z,2.15
2024-04-17T11:30:20.216Z,3.95
2024-04-17T11:32:49.049Z,4.22
2024-04-17T11:35:18.563Z,3.95
2024-04-17T11:37:50.929Z,1.73
2024-04-17T11:40:21.203Z,2.88
2024-04-17T11:42:50.583Z,5.55
2024-04-17T11:45:19.833Z,6.00
2024-04-17T11:47:48.578Z,1.73
2024-04-17T11:50:17.797Z,3.25
2024-04-17T11:52:46.441Z,4.13
2024-04-17T11:55:16.620Z,3.90
2024-04-17T11:57:45.171Z,4.22
2024-04-17T12:00:14.456Z,9.20
2024-04-17T12:02:42.994Z,4.50
2024-04-17T12:05:12.546Z,4.65
2024-04-17T12:07:43.365Z,5.35
2024-04-17T12:10:12.471Z,4.50
2024-04-17T12:12:40.984Z,1.73
2024-04-17T12:15:10.492Z,1.60
2024-04-17T12:17:42.147Z,2.08
2024-04-17T12:20:12.182Z,1.48
2024-04-17T12:22:41.093Z,1.00
2024-04-17T12:25:28.475Z,1.90
2024-04-17T12:27:57.183Z,2.08
2024-04-17T12:30:26.367Z,9.43
2024-04-17T12:32:57.320Z,2.00
2024-04-17T12:35:26.786Z,1.20
2024-04-17T12:37:55.295Z,0.80
2024-04-17T12:40:24.347Z,1.10
2024-04-17T12:42:52.809Z,2.03
2024-04-17T12:45:23.740Z,1.77
2024-04-17T12:47:52.470Z,2.17
2024-04-17T12:50:23.838Z,2.97
2024-04-17T12:52:55.857Z,5.22
2024-04-17T12:55:28.981Z,3.65
2024-04-17T12:57:57.575Z,1.92
2024-04-17T13:00:28.121Z,3.72
2024-04-17T13:03:00.721Z,1.90
2024-04-17T13:05:29.999Z,2.58
2024-04-17T13:07:58.588Z,1.38
2024-04-17T13:10:29.367Z,3.00
2024-04-17T13:12:57.999Z,2.28
2024-04-17T13:15:41.243Z,1.52
2024-04-17T13:18:10.428Z,1.67
2024-04-17T13:20:42.869Z,2.75
2024-04-17T13:23:16.452Z,1.15
2024-04-17T13:26:02.264Z,2.35
2024-04-17T13:28:35.471Z,1.30
2024-04-17T13:31:09.390Z,1.08
2024-04-17T13:33:39.673Z,1.70
2024-04-17T13:36:12.865Z,1.23
2024-04-17T13:38:47.460Z,1.60
2024-04-17T14:24:38.825Z,0.85
2024-04-17T14:40:13.860Z,4.22
2024-04-17T14:42:47.403Z,2.03
2024-04-17T14:45:19.420Z,4.43
2024-04-17T14:47:54.433Z,6.97
2024-04-17T14:50:23.712Z,4.38
2024-04-17T14:52:55.689Z,5.78
2024-04-17T14:55:24.237Z,2.38
2024-04-17T14:57:57.320Z,2.17
2024-04-17T15:00:25.981Z,5.22
2024-04-17T15:02:55.959Z,2.95
2024-04-17T15:05:24.776Z,2.70
2024-04-17T15:07:53.975Z,4.15
2024-04-17T15:10:22.760Z,1.35
2024-04-17T15:12:52.909Z,4.05
2024-04-17T15:15:54.944Z,2.85
2024-04-17T15:18:43.741Z,2.38
2024-04-17T15:21:36.001Z,3.70
2024-04-17T15:24:07.926Z,1.90
2024-04-17T15:26:40.109Z,1.05
2024-04-17T15:29:25.219Z,1.95
2024-04-17T15:32:12.418Z,1.95
2024-04-17T15:35:05.313Z,1.90
2024-04-17T15:37:36.970Z,3.22
2024-04-17T15:43:07.859Z,3.78
2024-04-17T15:46:05.062Z,2.67
2024-04-17T15:49:04.167Z,4.65
2024-04-17T15:51:46.279Z,18.00
2024-04-17T15:54:26.759Z,14.05
2024-04-17T15:56:58.783Z,15.38
2024-04-17T15:59:44.788Z,23.67
2024-04-17T16:02:35.178Z,25.60
2024-04-17T16:05:07.115Z,18.50
2024-04-17T16:07:35.714Z,16.98
2024-04-17T16:10:05.611Z,8.73
2024-04-17T16:13:07.693Z,16.80
2024-04-17T16:19:13.738Z,20.75
2024-04-17T16:21:53.129Z,36.20
2024-04-17T16:24:36.633Z,17.38
2024-04-17T16:27:06.276Z,19.40
2024-04-17T16:29:35.386Z,16.67
2024-04-17T16:32:05.986Z,20.80
2024-04-17T16:34:44.582Z,8.75
2024-04-17T16:37:13.295Z,9.90
2024-04-17T16:39:45.607Z,10.35
2024-04-17T16:42:16.085Z,5.38
2024-04-17T16:44:47.429Z,3.65
2024-04-17T16:47:17.675Z,3.88
2024-04-17T16:49:46.701Z,3.22
2024-04-17T16:52:16.503Z,4.53
2024-04-17T16:54:54.937Z,8.45
2024-04-17T16:57:23.637Z,4.10
2024-04-17T16:59:52.859Z,5.45
2024-04-17T17:02:22.490Z,11.88
2024-04-17T17:04:53.131Z,18.90
2024-04-17T17:07:21.951Z,18.38
2024-04-17T17:09:55.455Z,11.60
2024-04-17T17:12:24.186Z,9.05
2024-04-17T17:14:56.186Z,12.73
2024-04-17T17:17:58.318Z,7.15
2024-04-17T17:20:30.093Z,9.15
2024-04-17T17:26:26.559Z,6.22
2024-04-17T17:29:15.748Z,10.15
2024-04-17T17:34:52.395Z,10.23
2024-04-17T17:38:12.829Z,8.98
2024-04-17T17:40:44.115Z,13.20
2024-04-17T17:43:13.968Z,11.70
2024-04-17T17:45:42.775Z,27.92
2024-04-17T17:48:14.132Z,52.42
2024-04-17T17:50:50.341Z,67.45
2024-04-17T17:53:19.564Z,63.42
2024-04-17T17:55:52.280Z,34.33
2024-04-17T17:58:21.899Z,31.33
2024-04-17T18:00:55.710Z,25.10
2024-04-17T18:03:29.748Z,26.08
2024-04-17T18:06:06.885Z,32.05
2024-04-17T18:08:51.831Z,27.15
2024-04-17T18:11:22.884Z,32.13
2024-04-17T18:52:36.427Z,51.03
2024-04-17T18:57:38.880Z,50.55
2024-04-17T19:00:08.657Z,59.92
2024-04-17T19:02:42.615Z,77.13
2024-04-17T19:05:11.710Z,89.55
2024-04-17T19:07:42.597Z,84.95
2024-04-17T19:10:14.004Z,118.18
2024-04-17T19:12:45.548Z,133.20
2024-04-17T19:15:16.425Z,81.70
2024-04-17T19:17:45.778Z,39.25
2024-04-17T19:20:15.034Z,37.78
2024-04-17T19:22:46.593Z,41.33
2024-04-17T19:25:17.539Z,41.58
2024-04-17T19:27:47.274Z,34.70
2024-04-17T20:23:34.909Z,92.30
2024-04-17T20:26:12.254Z,85.25
2024-04-17T20:28:52.748Z,87.43
2024-04-17T20:31:28.960Z,107.45
2024-04-17T20:34:00.377Z,104.25
2024-04-17T20:36:29.836Z,99.50
2024-04-17T20:39:01.255Z,252.63
2024-04-17T20:44:02.299Z,148.48
2024-04-17T20:46:32.590Z,32.72
2024-04-17T20:49:07.631Z,25.15
2024-04-17T20:51:39.547Z,16.67
2024-04-17T20:54:10.478Z,15.52
2024-04-17T20:56:39.780Z,16.25
2024-04-17T20:59:13.192Z,14.18
2024-04-17T21:01:44.635Z,15.73
2024-04-17T21:04:15.587Z,16.83
2024-04-17T21:06:45.985Z,16.70
2024-04-17T21:09:17.262Z,18.25
2024-04-17T21:11:54.177Z,25.38
2024-04-17T21:14:25.743Z,19.45
2024-04-17T21:16:54.783Z,17.73
2024-04-17T21:19:23.323Z,12.80
2024-04-17T21:21:52.391Z,15.52
2024-04-17T21:24:22.167Z,11.10
2024-04-17T21:26:51.261Z,12.05
2024-04-17T21:29:19.751Z,11.25
2024-04-17T21:31:48.828Z,12.90
2024-04-17T21:34:17.412Z,11.48
2024-04-17T21:36:47.275Z,11.20
2024-04-17T21:39:16.126Z,12.63
2024-04-17T21:41:45.157Z,75.88
2024-04-17T21:44:13.685Z,25.25
2024-04-17T21:46:42.935Z,22.33
2024-04-17T21:49:11.754Z,81.85
2024-04-17T21:51:40.846Z,20.67
2024-04-17T21:54:09.496Z,12.10
2024-04-17T21:56:38.586Z,15.10
2024-04-17T21:59:07.167Z,9.75
2024-04-17T22:01:36.828Z,19.00
2024-04-17T22:04:05.536Z,13.90
2024-04-17T22:06:38.391Z,9.57
2024-04-17T22:09:06.918Z,16.13
2024-04-17T22:11:36.156Z,16.00
2024-04-17T22:14:04.762Z,27.05
2024-04-17T22:16:36.709Z,18.63
2024-04-17T22:19:05.402Z,32.85
2024-04-17T22:21:34.337Z,20.42
2024-04-17T22:24:03.210Z,54.70
2024-04-17T22:26:32.235Z,154.95
2024-04-17T22:29:00.723Z,18.52
2024-04-17T22:31:29.714Z,16.55
2024-04-17T22:33:58.381Z,26.88
2024-04-17T22:36:27.468Z,51.42
2024-04-17T22:38:56.429Z,58.95
2024-04-17T22:41:25.487Z,16.02
2024-04-17T22:43:54.149Z,59.72
2024-04-17T22:46:23.219Z,38.88
2024-04-17T22:48:51.783Z,105.82
2024-04-17T22:51:20.942Z,101.00
2024-04-17T22:53:49.459Z,188.35
2024-04-17T22:56:18.398Z,261.42
2024-04-17T22:58:50.349Z,190.65
2024-04-17T23:01:19.576Z,158.48
2024-04-17T23:03:48.188Z,89.75
2024-04-17T23:06:17.310Z,21.83
2024-04-17T23:08:45.875Z,20.58
2024-04-17T23:11:14.927Z,32.97
2024-04-17T23:13:43.449Z,19.77
2024-04-17T23:16:12.414Z,10.38
2024-04-17T23:18:41.044Z,8.93
2024-04-17T23:21:11.256Z,12.32
2024-04-17T23:23:39.809Z,7.97
2024-04-17T23:26:08.826Z,8.10
2024-04-17T23:28:37.520Z,8.10
2024-04-17T23:31:06.566Z,7.55
2024-04-17T23:33:35.150Z,7.53
2024-04-17T23:36:04.265Z,15.30
2024-04-17T23:38:32.908Z,24.13
2024-04-17T23:41:02.111Z,21.67
2024-04-17T23:43:31.254Z,15.32
2024-04-17T23:46:00.185Z,9.25
2024-04-17T23:48:28.753Z,9.15
2024-04-17T23:50:58.540Z,8.20
2024-04-17T23:53:27.081Z,12.25
2024-04-17T23:55:56.017Z,10.88
2024-04-17T23:58:24.571Z,10.68
